createdAt,value
2023-12-13T00:00:16.879Z,40.90
2023-12-13T00:01:43.574Z,37.20
2023-12-13T00:02:49.954Z,38.40
2023-12-13T00:03:56.675Z,37.20
2023-12-13T00:05:03.867Z,37.40
2023-12-13T00:06:10.239Z,38.30
2023-12-13T00:07:16.677Z,37.30
2023-12-13T00:08:23.149Z,41.10
2023-12-13T00:09:29.618Z,40.40
2023-12-13T00:10:36.235Z,41.30
2023-12-13T00:11:42.549Z,41.90
2023-12-13T00:12:49.115Z,42.50
2023-12-13T00:13:55.787Z,38.80
2023-12-13T00:15:02.108Z,37.80
2023-12-13T00:16:10.231Z,36.10
2023-12-13T00:17:16.568Z,39.40
2023-12-13T00:18:23.295Z,36.90
2023-12-13T00:19:29.523Z,38.00
2023-12-13T00:20:38.743Z,36.50
2023-12-13T00:21:45.420Z,35.80
2023-12-13T00:22:52.268Z,36.40
2023-12-13T00:23:58.696Z,35.50
2023-12-13T00:25:05.849Z,34.40
2023-12-13T00:26:17.281Z,36.20
2023-12-13T00:27:24.069Z,35.30
2023-12-13T00:28:30.981Z,37.90
2023-12-13T00:29:38.154Z,35.00
2023-12-13T00:30:46.472Z,34.30
2023-12-13T00:31:53.064Z,33.20
2023-12-13T00:32:59.397Z,33.20
2023-12-13T00:34:06.686Z,32.00
2023-12-13T00:35:13.336Z,33.90
2023-12-13T00:36:19.601Z,32.00
2023-12-13T00:37:25.993Z,33.50
2023-12-13T00:38:32.284Z,32.80
2023-12-13T00:39:38.756Z,33.50
2023-12-13T00:40:46.569Z,34.50
2023-12-13T00:41:53.255Z,36.70
2023-12-13T00:42:59.606Z,32.40
2023-12-13T00:44:06.146Z,36.70
2023-12-13T00:45:13.412Z,34.80
2023-12-13T00:46:24.034Z,33.10
2023-12-13T00:47:30.823Z,32.30
2023-12-13T00:48:37.618Z,31.50
2023-12-13T00:49:44.069Z,32.40
2023-12-13T00:50:50.752Z,31.40
2023-12-13T00:51:57.242Z,33.10
2023-12-13T00:53:03.796Z,32.60
2023-12-13T00:54:09.972Z,33.50
2023-12-13T00:55:16.344Z,32.90
2023-12-13T00:56:22.600Z,33.40
2023-12-13T00:57:28.901Z,37.00
2023-12-13T00:58:35.192Z,35.30
2023-12-13T00:59:41.426Z,38.30
2023-12-13T01:00:47.948Z,33.70
2023-12-13T01:01:54.531Z,37.00
2023-12-13T01:03:01.097Z,38.60
2023-12-13T01:04:07.997Z,35.70
2023-12-13T01:05:14.539Z,36.20
2023-12-13T01:06:20.888Z,36.90
2023-12-13T01:07:27.275Z,34.20
2023-12-13T01:08:33.628Z,35.20
2023-12-13T01:09:42.513Z,33.90
2023-12-13T01:10:49.029Z,34.30
2023-12-13T01:11:55.378Z,35.50
2023-12-13T01:13:02.398Z,34.30
2023-12-13T01:14:08.982Z,34.40
2023-12-13T01:15:15.989Z,35.60
2023-12-13T01:16:22.256Z,34.30
2023-12-13T01:17:28.478Z,36.70
2023-12-13T01:18:34.899Z,35.70
2023-12-13T01:19:41.332Z,34.70
2023-12-13T01:20:48.040Z,35.50
2023-12-13T01:21:54.851Z,34.60
2023-12-13T01:23:01.365Z,34.30
2023-12-13T01:24:08.196Z,36.10
2023-12-13T01:25:14.867Z,34.10
2023-12-13T01:26:21.091Z,34.90
2023-12-13T01:27:27.396Z,34.60
2023-12-13T01:28:34.061Z,34.70
2023-12-13T01:29:40.356Z,32.90
2023-12-13T01:30:46.797Z,32.70
2023-12-13T01:31:53.448Z,32.20
2023-12-13T01:33:04.060Z,33.80
2023-12-13T01:34:11.108Z,32.00
2023-12-13T01:35:17.533Z,34.30
2023-12-13T01:36:24.253Z,29.00
2023-12-13T01:37:31.433Z,27.70
2023-12-13T01:38:38.139Z,29.00
2023-12-13T01:39:45.308Z,28.90
2023-12-13T01:41:11.165Z,28.20
2023-12-13T01:42:20.346Z,26.40
2023-12-13T01:43:27.442Z,24.50
2023-12-13T01:44:33.787Z,25.80
2023-12-13T01:45:40.142Z,26.70
2023-12-13T01:46:48.031Z,28.70
2023-12-13T01:47:54.953Z,25.60
2023-12-13T01:49:02.889Z,26.20
2023-12-13T01:50:11.223Z,31.50
2023-12-13T01:51:18.574Z,30.20
2023-12-13T01:52:25.115Z,27.30
2023-12-13T01:53:33.211Z,29.50
2023-12-13T01:54:40.681Z,29.20
2023-12-13T01:55:47.906Z,28.00
2023-12-13T01:56:54.617Z,28.60
2023-12-13T01:58:01.484Z,27.50
2023-12-13T01:59:07.932Z,29.10
2023-12-13T02:00:16.974Z,25.90
2023-12-13T02:01:23.429Z,28.20
2023-12-13T02:02:30.434Z,26.50
2023-12-13T02:03:38.365Z,26.10
2023-12-13T02:04:46.089Z,30.50
2023-12-13T02:05:53.380Z,26.90
2023-12-13T02:07:00.014Z,27.80
2023-12-13T02:08:07.566Z,29.30
2023-12-13T02:09:14.316Z,28.70
2023-12-13T02:10:21.888Z,30.60
2023-12-13T02:11:29.107Z,29.80
2023-12-13T02:12:36.176Z,30.00
2023-12-13T02:13:43.386Z,30.50
2023-12-13T02:14:49.756Z,30.00
2023-12-13T02:15:56.519Z,31.10
2023-12-13T02:17:03.450Z,30.40
2023-12-13T02:18:17.194Z,31.10
2023-12-13T02:19:23.542Z,31.10
2023-12-13T02:20:30.504Z,30.50
2023-12-13T02:21:36.741Z,28.10
2023-12-13T02:22:43.254Z,26.60
2023-12-13T02:23:52.693Z,28.10
2023-12-13T02:24:59.949Z,27.30
2023-12-13T02:26:07.555Z,29.80
2023-12-13T02:27:14.601Z,28.60
2023-12-13T02:28:22.151Z,29.80
2023-12-13T02:29:28.707Z,29.20
2023-12-13T02:30:35.243Z,29.30
2023-12-13T02:31:45.183Z,28.60
2023-12-13T02:32:51.659Z,29.30
2023-12-13T02:33:58.362Z,28.40
2023-12-13T02:35:05.062Z,28.10
2023-12-13T02:36:12.094Z,27.30
2023-12-13T02:37:18.392Z,26.40
2023-12-13T02:38:25.899Z,26.60
2023-12-13T02:39:32.668Z,26.80
2023-12-13T02:40:39.149Z,25.70
2023-12-13T02:41:45.831Z,28.50
2023-12-13T02:42:52.054Z,28.50
2023-12-13T02:43:58.288Z,28.10
2023-12-13T02:45:05.168Z,28.90
2023-12-13T02:46:11.525Z,28.60
2023-12-13T02:47:17.736Z,25.50
2023-12-13T02:48:28.908Z,25.00
2023-12-13T02:49:35.719Z,22.70
2023-12-13T02:50:42.286Z,24.20
2023-12-13T02:51:48.638Z,21.50
2023-12-13T02:52:55.319Z,21.20
2023-12-13T02:54:01.892Z,21.30
2023-12-13T02:55:13.099Z,18.10
2023-12-13T02:56:19.733Z,19.20
2023-12-13T02:57:26.108Z,18.60
2023-12-13T02:58:32.719Z,18.80
2023-12-13T02:59:38.820Z,18.50
2023-12-13T03:00:45.411Z,16.30
2023-12-13T03:01:51.862Z,17.10
2023-12-13T03:02:59.060Z,18.10
2023-12-13T03:04:05.840Z,17.80
2023-12-13T03:05:12.608Z,17.40
2023-12-13T03:06:19.596Z,18.10
2023-12-13T03:07:26.639Z,20.40
2023-12-13T03:08:33.418Z,18.80
2023-12-13T03:09:41.156Z,16.80
2023-12-13T03:10:47.769Z,17.90
2023-12-13T03:11:54.659Z,18.20
2023-12-13T03:13:02.368Z,17.60
2023-12-13T03:14:09.217Z,16.60
2023-12-13T03:15:16.361Z,18.30
2023-12-13T03:16:24.814Z,18.10
2023-12-13T03:17:31.694Z,19.70
2023-12-13T03:18:39.459Z,16.70
2023-12-13T03:19:46.482Z,19.00
2023-12-13T03:20:56.074Z,18.00
2023-12-13T03:22:04.376Z,18.90
2023-12-13T03:23:11.620Z,17.80
2023-12-13T03:24:18.045Z,17.30
2023-12-13T03:25:24.622Z,17.80
2023-12-13T03:26:31.398Z,18.10
2023-12-13T03:27:38.672Z,17.30
2023-12-13T03:28:45.534Z,17.70
2023-12-13T03:29:52.218Z,17.30
2023-12-13T03:30:59.113Z,18.40
2023-12-13T03:32:07.110Z,17.60
2023-12-13T03:33:13.965Z,17.70
2023-12-13T03:34:20.587Z,18.00
2023-12-13T03:35:27.553Z,19.10
2023-12-13T03:36:34.084Z,16.50
2023-12-13T03:37:41.502Z,18.50
2023-12-13T03:38:48.234Z,18.30
2023-12-13T03:39:54.740Z,19.10
2023-12-13T03:41:01.686Z,18.70
2023-12-13T03:42:08.234Z,19.10
2023-12-13T03:43:14.573Z,18.00
2023-12-13T03:44:21.143Z,17.40
2023-12-13T03:45:28.223Z,18.30
2023-12-13T03:46:36.110Z,17.70
2023-12-13T03:47:44.250Z,18.00
2023-12-13T03:48:51.145Z,17.00
2023-12-13T03:49:57.959Z,16.60
2023-12-13T03:51:06.023Z,16.50
2023-12-13T03:52:12.632Z,17.50
2023-12-13T03:53:18.783Z,18.30
2023-12-13T03:54:25.413Z,18.30
2023-12-13T03:55:31.678Z,16.80
2023-12-13T03:56:38.313Z,18.10
2023-12-13T03:57:44.829Z,18.10
2023-12-13T03:58:51.261Z,17.30
2023-12-13T03:59:57.860Z,16.40
2023-12-13T04:01:04.502Z,19.70
2023-12-13T04:02:10.796Z,17.80
2023-12-13T04:03:17.298Z,16.50
2023-12-13T04:04:23.842Z,16.90
2023-12-13T04:05:30.783Z,17.40
2023-12-13T04:06:37.209Z,16.20
2023-12-13T04:07:43.897Z,16.10
2023-12-13T04:08:50.534Z,15.80
2023-12-13T04:09:57.023Z,15.30
2023-12-13T04:11:03.669Z,16.20
2023-12-13T04:12:11.126Z,16.20
2023-12-13T04:13:17.765Z,16.10
2023-12-13T04:14:24.288Z,16.10
2023-12-13T04:15:30.832Z,16.90
2023-12-13T04:16:36.935Z,16.40
2023-12-13T04:17:43.714Z,15.70
2023-12-13T04:18:52.947Z,15.80
2023-12-13T04:19:59.866Z,15.10
2023-12-13T04:21:07.299Z,16.60
2023-12-13T04:22:13.909Z,15.40
2023-12-13T04:23:20.646Z,15.90
2023-12-13T04:24:26.982Z,15.20
2023-12-13T04:25:33.196Z,15.40
2023-12-13T04:26:39.839Z,13.80
2023-12-13T04:27:48.723Z,15.90
2023-12-13T04:28:55.422Z,15.80
2023-12-13T04:30:02.082Z,17.10
2023-12-13T04:31:09.160Z,16.20
2023-12-13T04:32:15.598Z,16.50
2023-12-13T04:33:22.092Z,15.80
2023-12-13T04:34:28.801Z,16.10
2023-12-13T04:35:35.275Z,16.10
2023-12-13T04:36:41.921Z,16.10
2023-12-13T04:37:48.670Z,16.40
2023-12-13T04:38:55.604Z,17.80
2023-12-13T04:40:02.480Z,16.60
2023-12-13T04:41:09.536Z,17.60
2023-12-13T04:42:16.002Z,15.90
2023-12-13T04:43:23.095Z,17.30
2023-12-13T04:44:29.827Z,15.90
2023-12-13T04:45:36.462Z,16.50
2023-12-13T04:46:44.437Z,16.40
2023-12-13T04:47:50.957Z,16.10
2023-12-13T04:49:02.393Z,16.30
2023-12-13T04:50:10.809Z,16.80
2023-12-13T04:51:17.318Z,14.70
2023-12-13T04:52:24.253Z,15.30
2023-12-13T04:53:31.212Z,15.70
2023-12-13T04:54:38.559Z,15.40
2023-12-13T04:55:44.833Z,16.50
2023-12-13T04:56:51.318Z,15.30
2023-12-13T04:57:57.837Z,17.30
2023-12-13T04:59:04.292Z,16.00
2023-12-13T05:00:12.678Z,17.40
2023-12-13T05:01:18.949Z,17.30
2023-12-13T05:02:25.394Z,16.70
2023-12-13T05:03:31.982Z,17.00
2023-12-13T05:04:38.748Z,16.70
2023-12-13T05:05:45.437Z,17.00
2023-12-13T05:06:51.902Z,17.70
2023-12-13T05:07:58.540Z,16.60
2023-12-13T05:09:05.063Z,16.60
2023-12-13T05:10:12.400Z,17.40
2023-12-13T05:11:20.289Z,17.70
2023-12-13T05:12:26.573Z,17.90
2023-12-13T05:13:33.185Z,17.00
2023-12-13T05:14:39.844Z,19.00
2023-12-13T05:15:46.169Z,16.20
2023-12-13T05:16:52.702Z,17.90
2023-12-13T05:17:59.228Z,17.00
2023-12-13T05:19:06.041Z,19.30
2023-12-13T05:20:13.326Z,18.30
2023-12-13T05:21:19.774Z,18.50
2023-12-13T05:22:26.902Z,19.50
2023-12-13T05:23:33.341Z,19.20
2023-12-13T05:24:40.005Z,18.20
2023-12-13T05:25:46.756Z,20.10
2023-12-13T05:26:53.337Z,18.60
2023-12-13T05:27:59.785Z,18.50
2023-12-13T05:29:06.814Z,17.10
2023-12-13T05:30:14.650Z,18.50
2023-12-13T05:31:25.306Z,16.00
2023-12-13T05:32:31.775Z,16.30
2023-12-13T05:33:39.689Z,16.30
2023-12-13T05:34:46.155Z,15.30
2023-12-13T05:35:52.979Z,13.00
2023-12-13T05:36:59.252Z,14.10
2023-12-13T05:38:06.012Z,14.50
2023-12-13T05:39:12.856Z,14.00
2023-12-13T05:40:19.236Z,12.90
2023-12-13T05:41:25.777Z,13.20
2023-12-13T05:42:34.818Z,13.00
2023-12-13T05:43:41.749Z,12.60
2023-12-13T05:44:48.305Z,12.90
2023-12-13T05:45:56.013Z,13.40
2023-12-13T05:47:02.744Z,14.00
2023-12-13T05:48:09.724Z,14.50
2023-12-13T05:49:19.346Z,13.80
2023-12-13T05:50:26.316Z,14.60
2023-12-13T05:51:33.455Z,14.90
2023-12-13T05:52:40.721Z,14.60
2023-12-13T05:53:47.373Z,13.70
2023-12-13T05:54:53.838Z,13.40
2023-12-13T05:56:02.197Z,12.80
2023-12-13T05:57:08.653Z,11.90
2023-12-13T05:58:16.077Z,12.60
2023-12-13T05:59:22.769Z,11.90
2023-12-13T06:00:32.125Z,11.90
2023-12-13T06:01:39.381Z,11.10
2023-12-13T06:02:55.307Z,11.70
2023-12-13T06:04:03.894Z,11.40
2023-12-13T06:05:12.561Z,11.00
2023-12-13T06:06:20.292Z,11.40
2023-12-13T06:07:26.742Z,10.90
2023-12-13T06:08:33.817Z,11.60
2023-12-13T06:09:41.357Z,12.20
2023-12-13T06:10:48.060Z,11.60
2023-12-13T06:11:54.698Z,12.10
2023-12-13T06:13:00.892Z,12.90
2023-12-13T06:14:07.160Z,13.10
2023-12-13T06:15:14.043Z,11.30
2023-12-13T06:16:20.559Z,11.30
2023-12-13T06:17:27.215Z,12.70
2023-12-13T06:18:34.093Z,13.40
2023-12-13T06:19:41.985Z,13.40
2023-12-13T06:20:48.249Z,13.20
2023-12-13T06:21:56.394Z,13.80
2023-12-13T06:23:03.644Z,12.90
2023-12-13T06:24:10.337Z,13.90
2023-12-13T06:25:17.597Z,14.00
2023-12-13T06:26:25.115Z,12.00
2023-12-13T06:27:31.836Z,12.50
2023-12-13T06:28:38.351Z,12.80
2023-12-13T06:29:45.293Z,13.40
2023-12-13T06:30:52.393Z,15.70
2023-12-13T06:31:59.003Z,13.70
2023-12-13T06:33:06.219Z,13.30
2023-12-13T06:34:12.747Z,13.70
2023-12-13T06:35:19.209Z,13.30
2023-12-13T06:36:25.870Z,14.80
2023-12-13T06:37:33.476Z,13.00
2023-12-13T06:38:39.996Z,13.50
2023-12-13T06:39:48.254Z,14.20
2023-12-13T06:40:56.514Z,14.00
2023-12-13T06:42:03.921Z,14.30
2023-12-13T06:43:11.118Z,13.90
2023-12-13T06:44:17.965Z,14.50
2023-12-13T06:45:24.194Z,12.30
2023-12-13T06:46:30.667Z,14.00
2023-12-13T06:47:37.579Z,13.80
2023-12-13T06:48:44.732Z,11.90
2023-12-13T06:49:51.178Z,13.60
2023-12-13T06:50:58.293Z,13.00
2023-12-13T06:52:05.383Z,11.90
2023-12-13T06:53:12.195Z,12.10
2023-12-13T06:54:19.768Z,11.40
2023-12-13T06:55:26.485Z,10.60
2023-12-13T06:56:33.048Z,11.50
2023-12-13T06:57:40.421Z,10.80
2023-12-13T06:58:47.359Z,11.90
2023-12-13T06:59:54.611Z,12.40
2023-12-13T07:01:00.946Z,11.60
2023-12-13T07:02:08.364Z,11.20
2023-12-13T07:03:14.972Z,12.10
2023-12-13T07:04:21.785Z,11.40
2023-12-13T07:05:28.200Z,11.70
2023-12-13T07:06:35.268Z,12.80
2023-12-13T07:07:41.490Z,11.60
2023-12-13T07:08:48.103Z,12.20
2023-12-13T07:09:55.585Z,13.70
2023-12-13T07:11:04.800Z,14.10
2023-12-13T07:12:11.940Z,14.00
2023-12-13T07:13:18.881Z,13.20
2023-12-13T07:14:26.734Z,12.20
2023-12-13T07:15:33.310Z,12.10
2023-12-13T07:16:39.880Z,12.00
2023-12-13T07:17:46.331Z,11.50
2023-12-13T07:18:53.557Z,12.10
2023-12-13T07:20:01.202Z,11.70
2023-12-13T07:21:09.671Z,12.60
2023-12-13T07:22:16.140Z,12.20
2023-12-13T07:23:22.911Z,12.10
2023-12-13T07:24:29.432Z,11.70
2023-12-13T07:25:35.695Z,11.80
2023-12-13T07:26:42.134Z,12.00
2023-12-13T07:27:48.674Z,12.50
2023-12-13T07:28:55.229Z,11.20
2023-12-13T07:30:01.849Z,11.50
2023-12-13T07:31:10.357Z,12.10
2023-12-13T07:32:17.453Z,11.70
2023-12-13T07:33:24.837Z,12.80
2023-12-13T07:34:31.454Z,11.90
2023-12-13T07:35:38.227Z,11.90
2023-12-13T07:36:49.583Z,12.60
2023-12-13T07:37:56.594Z,12.50
2023-12-13T07:39:04.410Z,13.30
2023-12-13T07:40:13.320Z,12.30
2023-12-13T07:41:20.730Z,12.20
2023-12-13T07:42:29.192Z,11.90
2023-12-13T07:43:35.529Z,11.40
2023-12-13T07:44:43.863Z,11.60
2023-12-13T07:45:53.258Z,12.30
2023-12-13T07:47:00.279Z,10.90
2023-12-13T07:48:17.979Z,12.00
2023-12-13T07:49:32.819Z,11.70
2023-12-13T07:50:39.692Z,11.50
2023-12-13T07:51:46.443Z,13.70
2023-12-13T07:52:52.968Z,12.60
2023-12-13T07:54:01.938Z,11.50
2023-12-13T07:55:10.149Z,11.70
2023-12-13T07:56:23.981Z,12.60
2023-12-13T07:57:34.231Z,12.50
2023-12-13T07:58:40.589Z,13.00
2023-12-13T07:59:47.186Z,12.90
2023-12-13T08:00:53.595Z,12.10
2023-12-13T08:01:59.840Z,11.80
2023-12-13T08:03:06.242Z,11.50
2023-12-13T08:04:12.783Z,10.70
2023-12-13T08:05:21.478Z,11.50
2023-12-13T08:06:28.150Z,12.30
2023-12-13T08:07:34.466Z,12.00
2023-12-13T08:08:41.076Z,12.30
2023-12-13T08:09:47.588Z,11.50
2023-12-13T08:10:54.676Z,11.70
2023-12-13T08:12:01.340Z,12.90
2023-12-13T08:13:07.963Z,11.60
2023-12-13T08:14:17.567Z,11.90
2023-12-13T08:15:24.408Z,13.20
2023-12-13T08:16:31.098Z,12.90
2023-12-13T08:17:37.887Z,13.00
2023-12-13T08:18:44.538Z,12.70
2023-12-13T08:19:51.601Z,11.80
2023-12-13T08:20:58.133Z,11.30
2023-12-13T08:22:05.068Z,12.40
2023-12-13T08:23:11.571Z,12.00
2023-12-13T08:24:18.521Z,12.00
2023-12-13T08:25:25.114Z,10.60
2023-12-13T08:26:31.430Z,12.10
2023-12-13T08:27:38.307Z,11.50
2023-12-13T08:28:44.889Z,12.20
2023-12-13T08:29:51.970Z,11.70
2023-12-13T08:31:08.750Z,11.80
2023-12-13T08:32:23.598Z,12.40
2023-12-13T08:33:29.970Z,12.10
2023-12-13T08:34:36.921Z,11.20
2023-12-13T08:35:43.695Z,10.90
2023-12-13T08:36:50.274Z,11.70
2023-12-13T08:37:56.996Z,11.50
2023-12-13T08:39:04.264Z,11.60
2023-12-13T08:40:12.534Z,12.20
2023-12-13T08:41:18.973Z,12.20
2023-12-13T08:42:30.643Z,11.80
2023-12-13T08:43:43.275Z,11.10
2023-12-13T08:44:50.390Z,12.00
2023-12-13T08:45:56.773Z,10.90
2023-12-13T08:47:03.523Z,10.80
2023-12-13T08:48:10.084Z,10.30
2023-12-13T08:49:16.588Z,10.70
2023-12-13T08:50:23.682Z,11.40
2023-12-13T08:51:30.252Z,10.40
2023-12-13T08:52:36.573Z,10.70
2023-12-13T08:53:42.778Z,11.90
2023-12-13T08:54:48.995Z,11.80
2023-12-13T08:55:55.280Z,11.30
2023-12-13T08:57:02.554Z,12.10
2023-12-13T08:58:08.896Z,11.50
2023-12-13T08:59:15.167Z,11.40
2023-12-13T09:00:22.746Z,11.20
2023-12-13T09:01:29.748Z,11.10
2023-12-13T09:02:36.011Z,11.20
2023-12-13T09:03:42.600Z,11.30
2023-12-13T09:04:49.799Z,10.60
2023-12-13T09:05:56.261Z,11.50
2023-12-13T09:07:02.642Z,10.70
2023-12-13T09:08:09.114Z,11.80
2023-12-13T09:09:15.961Z,11.20
2023-12-13T09:10:27.497Z,11.70
2023-12-13T09:11:33.600Z,11.80
2023-12-13T09:12:39.898Z,12.60
2023-12-13T09:13:46.375Z,11.90
2023-12-13T09:14:53.233Z,12.30
2023-12-13T09:15:59.771Z,14.30
2023-12-13T09:17:06.647Z,14.10
2023-12-13T09:18:13.226Z,14.40
2023-12-13T09:19:20.545Z,12.30
2023-12-13T09:20:33.060Z,12.40
2023-12-13T09:21:39.584Z,11.70
2023-12-13T09:22:46.255Z,11.60
2023-12-13T09:23:52.830Z,12.00
2023-12-13T09:24:59.986Z,11.70
2023-12-13T09:26:07.221Z,10.80
2023-12-13T09:27:13.691Z,10.40
2023-12-13T09:28:20.579Z,10.80
2023-12-13T09:29:26.835Z,10.90
2023-12-13T09:30:33.125Z,12.10
2023-12-13T09:31:39.987Z,10.60
2023-12-13T09:32:48.085Z,12.00
2023-12-13T09:33:54.951Z,14.60
2023-12-13T09:35:01.641Z,13.60
2023-12-13T09:36:10.575Z,14.90
2023-12-13T09:37:17.724Z,14.00
2023-12-13T09:38:24.258Z,14.20
2023-12-13T09:39:31.151Z,13.80
2023-12-13T09:40:37.927Z,14.10
2023-12-13T09:41:55.338Z,13.00
2023-12-13T09:43:03.151Z,13.20
2023-12-13T09:44:10.358Z,13.60
2023-12-13T09:45:22.548Z,13.50
2023-12-13T09:46:30.899Z,11.90
2023-12-13T09:47:39.393Z,12.90
2023-12-13T09:48:47.298Z,12.20
2023-12-13T09:49:55.065Z,13.40
2023-12-13T09:51:04.097Z,13.40
2023-12-13T09:53:17.711Z,13.40
2023-12-13T09:54:24.475Z,13.60
2023-12-13T09:55:30.886Z,14.00
2023-12-13T09:56:38.183Z,12.50
2023-12-13T09:57:44.891Z,12.80
2023-12-13T09:58:51.869Z,12.80
2023-12-13T09:59:59.097Z,12.40
2023-12-13T10:01:17.443Z,12.30
2023-12-13T10:02:23.823Z,12.30
2023-12-13T10:03:32.820Z,12.40
2023-12-13T10:05:48.769Z,12.20
2023-12-13T10:06:55.605Z,13.10
2023-12-13T10:08:05.329Z,13.40
2023-12-13T10:09:12.634Z,14.00
2023-12-13T10:10:19.726Z,14.50
2023-12-13T10:11:26.575Z,13.90
2023-12-13T10:12:35.000Z,13.00
2023-12-13T10:13:42.534Z,13.70
2023-12-13T10:14:49.050Z,13.40
2023-12-13T10:15:55.531Z,13.10
2023-12-13T10:17:11.810Z,12.60
2023-12-13T10:18:23.987Z,14.60
2023-12-13T10:19:30.799Z,17.60
2023-12-13T10:20:38.104Z,14.30
2023-12-13T10:21:47.378Z,13.70
2023-12-13T10:23:58.787Z,14.20
2023-12-13T10:25:05.994Z,14.80
2023-12-13T10:26:13.512Z,16.40
2023-12-13T10:27:20.528Z,16.50
2023-12-13T10:28:27.377Z,16.90
2023-12-13T10:29:34.046Z,16.90
2023-12-13T10:30:41.678Z,17.10
2023-12-13T10:31:49.569Z,18.30
2023-12-13T10:32:56.228Z,17.50
2023-12-13T10:34:03.013Z,18.00
2023-12-13T10:35:10.717Z,17.40
2023-12-13T10:36:19.353Z,16.80
2023-12-13T10:37:28.424Z,16.20
2023-12-13T10:38:36.813Z,16.20
2023-12-13T10:39:45.911Z,17.10
2023-12-13T10:42:00.554Z,15.90
2023-12-13T10:44:20.746Z,16.80
2023-12-13T10:45:28.037Z,16.90
2023-12-13T10:46:37.826Z,16.20
2023-12-13T10:47:47.275Z,17.10
2023-12-13T10:48:55.186Z,17.30
2023-12-13T10:50:02.948Z,16.60
2023-12-13T10:51:10.987Z,17.00
2023-12-13T10:52:19.458Z,16.80
2023-12-13T10:53:28.054Z,15.70
2023-12-13T10:54:36.150Z,17.60
2023-12-13T10:55:44.568Z,19.50
2023-12-13T10:56:52.454Z,20.00
2023-12-13T10:57:59.445Z,18.40
2023-12-13T10:59:08.761Z,18.10
2023-12-13T11:00:18.142Z,17.60
2023-12-13T11:01:25.481Z,17.20
2023-12-13T11:02:37.524Z,16.70
2023-12-13T11:03:49.543Z,17.50
2023-12-13T11:04:57.108Z,16.00
2023-12-13T11:06:08.727Z,18.40
2023-12-13T11:07:21.820Z,19.10
2023-12-13T11:08:42.583Z,15.60
2023-12-13T11:09:57.042Z,11.50
2023-12-13T11:11:05.431Z,11.90
2023-12-13T11:12:20.035Z,11.50
2023-12-13T11:13:27.673Z,11.50
2023-12-13T11:14:36.343Z,12.30
2023-12-13T11:15:46.722Z,10.80
2023-12-13T11:16:53.842Z,11.10
2023-12-13T11:18:05.431Z,10.10
2023-12-13T11:19:20.112Z,9.90
2023-12-13T11:20:28.182Z,9.40
2023-12-13T11:21:36.090Z,10.10
2023-12-13T11:22:50.370Z,10.70
2023-12-13T11:24:01.569Z,8.80
2023-12-13T11:25:10.615Z,8.40
2023-12-13T11:26:25.234Z,9.00
2023-12-13T11:27:33.988Z,9.10
2023-12-13T11:28:40.549Z,9.10
2023-12-13T11:29:49.023Z,8.20
2023-12-13T11:30:57.254Z,8.60
2023-12-13T11:32:05.585Z,7.70
2023-12-13T11:33:15.798Z,7.90
2023-12-13T11:34:33.778Z,7.70
2023-12-13T11:35:41.881Z,7.60
2023-12-13T11:36:48.547Z,8.10
2023-12-13T11:37:56.403Z,7.40
2023-12-13T11:39:04.877Z,8.10
2023-12-13T11:40:13.476Z,8.00
2023-12-13T11:41:21.553Z,7.80
2023-12-13T11:42:27.781Z,7.40
2023-12-13T11:43:34.389Z,7.90
2023-12-13T11:44:43.891Z,7.50
2023-12-13T11:48:04.935Z,7.00
2023-12-13T11:49:11.680Z,8.30
2023-12-13T11:50:21.490Z,8.40
2023-12-13T11:51:28.708Z,7.60
2023-12-13T11:52:35.345Z,7.90
2023-12-13T11:53:42.095Z,9.60
2023-12-13T11:54:48.641Z,11.10
2023-12-13T11:55:56.638Z,10.30
2023-12-13T11:57:11.787Z,10.20
2023-12-13T11:58:18.565Z,11.50
2023-12-13T11:59:26.431Z,10.50
2023-12-13T12:00:33.599Z,9.20
2023-12-13T12:01:42.013Z,8.80
2023-12-13T12:02:52.903Z,8.50
2023-12-13T12:03:59.874Z,7.40
2023-12-13T12:05:09.754Z,7.20
2023-12-13T12:06:23.496Z,8.50
2023-12-13T12:07:30.604Z,7.70
2023-12-13T12:08:37.970Z,8.40
2023-12-13T12:09:49.590Z,7.80
2023-12-13T12:10:56.813Z,7.80
2023-12-13T12:12:05.049Z,8.30
2023-12-13T12:13:15.601Z,7.50
2023-12-13T12:14:26.204Z,7.80
2023-12-13T12:15:33.649Z,8.10
2023-12-13T12:16:41.100Z,12.40
2023-12-13T12:17:48.926Z,11.60
2023-12-13T12:18:56.809Z,9.40
2023-12-13T12:20:04.659Z,9.80
2023-12-13T12:21:12.237Z,8.50
2023-12-13T12:22:23.138Z,8.80
2023-12-13T12:23:32.992Z,8.10
2023-12-13T12:24:39.539Z,7.90
2023-12-13T12:25:47.535Z,7.60
2023-12-13T12:26:55.806Z,7.40
2023-12-13T12:28:02.848Z,7.20
2023-12-13T12:29:09.433Z,6.80
2023-12-13T12:30:18.775Z,6.70
2023-12-13T12:31:25.481Z,6.60
2023-12-13T12:32:32.002Z,7.00
2023-12-13T12:33:39.361Z,6.80
2023-12-13T12:34:50.846Z,7.80
2023-12-13T12:35:58.912Z,7.40
2023-12-13T12:37:06.123Z,7.60
2023-12-13T12:38:13.400Z,8.10
2023-12-13T12:39:20.283Z,6.80
2023-12-13T12:40:26.836Z,6.80
2023-12-13T12:41:35.836Z,7.20
2023-12-13T12:42:44.182Z,7.00
2023-12-13T12:43:51.522Z,7.00
2023-12-13T12:44:57.977Z,6.80
2023-12-13T12:46:05.776Z,6.90
2023-12-13T12:47:12.041Z,7.20
2023-12-13T12:48:19.486Z,6.10
2023-12-13T12:49:26.621Z,6.60
2023-12-13T12:50:33.321Z,7.40
2023-12-13T12:51:39.878Z,7.00
2023-12-13T12:52:46.413Z,6.60
2023-12-13T12:53:53.053Z,7.60
2023-12-13T12:54:59.344Z,7.70
2023-12-13T12:56:11.245Z,10.20
2023-12-13T12:57:19.349Z,10.40
2023-12-13T12:58:26.059Z,7.80
2023-12-13T12:59:32.638Z,11.00
2023-12-13T13:00:39.271Z,10.00
2023-12-13T13:01:46.629Z,10.20
2023-12-13T13:02:54.058Z,11.50
2023-12-13T13:04:01.003Z,11.80
2023-12-13T13:05:08.853Z,11.00
2023-12-13T13:06:16.093Z,10.90
2023-12-13T13:07:22.620Z,11.20
2023-12-13T13:08:30.045Z,9.20
2023-12-13T13:09:37.115Z,8.90
2023-12-13T13:10:43.929Z,8.80
2023-12-13T13:11:50.553Z,9.00
2023-12-13T13:12:57.716Z,9.40
2023-12-13T13:14:07.997Z,8.40
2023-12-13T13:15:15.115Z,9.30
2023-12-13T13:16:22.549Z,8.20
2023-12-13T13:17:31.713Z,8.20
2023-12-13T13:18:38.468Z,6.80
2023-12-13T13:19:45.125Z,8.00
2023-12-13T13:20:51.935Z,8.00
2023-12-13T13:22:03.203Z,8.20
2023-12-13T13:23:15.016Z,9.40
2023-12-13T13:24:23.454Z,9.00
2023-12-13T13:25:30.403Z,8.70
2023-12-13T13:26:38.071Z,8.20
2023-12-13T13:27:45.805Z,8.60
2023-12-13T13:28:52.824Z,8.50
2023-12-13T13:29:59.575Z,7.80
2023-12-13T13:31:06.748Z,7.90
2023-12-13T13:32:13.526Z,6.50
2023-12-13T13:33:20.171Z,6.80
2023-12-13T13:34:26.807Z,6.50
2023-12-13T13:35:33.244Z,7.50
2023-12-13T13:36:39.851Z,7.00
2023-12-13T13:37:47.250Z,7.30
2023-12-13T13:38:53.960Z,6.70
2023-12-13T13:40:00.341Z,7.50
2023-12-13T13:41:07.753Z,6.90
2023-12-13T13:42:14.345Z,9.30
2023-12-13T13:43:21.013Z,9.80
2023-12-13T13:44:27.788Z,9.40
2023-12-13T13:45:34.458Z,8.60
2023-12-13T13:46:41.570Z,7.40
2023-12-13T13:47:48.508Z,7.30
2023-12-13T13:48:57.369Z,7.00
2023-12-13T13:51:11.041Z,7.00
2023-12-13T13:52:18.960Z,6.10
2023-12-13T13:53:29.509Z,6.20
2023-12-13T13:54:36.357Z,7.30
2023-12-13T13:55:43.000Z,9.10
2023-12-13T13:56:49.780Z,8.70
2023-12-13T13:57:56.490Z,7.50
2023-12-13T13:59:02.991Z,7.30
2023-12-13T14:00:12.992Z,7.40
2023-12-13T14:01:19.666Z,7.00
2023-12-13T14:02:33.752Z,7.40
2023-12-13T14:03:40.828Z,7.10
2023-12-13T14:04:47.478Z,7.50
2023-12-13T14:05:57.101Z,7.30
2023-12-13T14:07:05.749Z,6.20
2023-12-13T14:08:15.320Z,7.00
2023-12-13T14:09:22.732Z,5.80
2023-12-13T14:10:29.430Z,5.80
2023-12-13T14:11:36.219Z,5.90
2023-12-13T14:12:42.809Z,6.70
2023-12-13T14:13:51.644Z,7.00
2023-12-13T14:14:58.412Z,7.50
2023-12-13T14:16:05.603Z,8.10
2023-12-13T14:17:13.039Z,6.90
2023-12-13T14:18:21.589Z,7.60
2023-12-13T14:19:28.440Z,7.70
2023-12-13T14:20:34.969Z,7.00
2023-12-13T14:21:41.591Z,5.90
2023-12-13T14:22:48.277Z,6.10
2023-12-13T14:23:55.851Z,6.30
2023-12-13T14:25:02.496Z,6.10
2023-12-13T14:26:09.269Z,6.00
2023-12-13T14:27:16.016Z,4.00
2023-12-13T14:28:23.922Z,3.80
2023-12-13T14:29:31.797Z,3.70
2023-12-13T14:30:39.931Z,4.50
2023-12-13T14:31:47.076Z,5.40
2023-12-13T14:32:54.439Z,6.40
2023-12-13T14:34:01.409Z,7.20
2023-12-13T14:35:09.413Z,8.10
2023-12-13T14:36:16.102Z,7.60
2023-12-13T14:37:23.549Z,6.40
2023-12-13T14:38:32.811Z,6.20
2023-12-13T14:39:41.819Z,6.70
2023-12-13T14:41:56.374Z,6.30
2023-12-13T14:43:07.985Z,6.60
2023-12-13T14:44:16.244Z,6.70
2023-12-13T14:45:22.998Z,6.50